Time;durP1;ratioP1;P1;durP2;ratioP2;P2;SDS_P1;SDS_P2;PMS_P1;PMS_P2;Temp;Humidity;BMP_temperature;BMP_pressure;BME280_temperature;BME280_humidity;BME280_pressure;Samples;Min_cycle;Max_cycle;Signal;HPM_P1;HPM_P2
2022/08/13 00:01:08;;;;;;;9.13;7.28;;;;;;;;;;1657767;86;21576;-65
2022/08/13 00:03:35;;;;;;;10.05;6.90;;;;;;;;;;1653906;86;21112;-65
2022/08/13 00:06:04;;;;;;;9.80;7.62;;;;;;;;;;1654694;86;21136;-65
2022/08/13 00:08:30;;;;;;;9.00;7.45;;;;;;;;;;1649011;86;21088;-64
2022/08/13 00:10:57;;;;;;;8.58;7.30;;;;;;;;;;1636539;86;21525;-64
2022/08/13 00:13:24;;;;;;;9.60;6.60;;;;;;;;;;1636204;86;21590;-64
2022/08/13 00:15:51;;;;;;;8.93;6.35;;;;;;;;;;1655717;86;21113;-65
2022/08/13 00:18:18;;;;;;;9.80;6.47;;;;;;;;;;1643849;86;21548;-65
2022/08/13 00:20:49;;;;;;;10.70;6.67;;;;;;;;;;1659431;86;21088;-64
2022/08/13 00:23:16;;;;;;;9.25;6.92;;;;;;;;;;1659143;86;21034;-66
2022/08/13 00:25:43;;;;;;;7.78;6.90;;;;;;;;;;1644270;86;21120;-64
2022/08/13 00:28:08;;;;;;;8.58;6.45;;;;;;;;;;1661849;86;21060;-65
2022/08/13 00:30:35;;;;;;;9.23;6.12;;;;;;;;;;1651730;86;21092;-64
2022/08/13 00:33:06;;;;;;;8.65;5.55;;;;;;;;;;1634899;88;21088;-65
2022/08/13 00:35:36;;;;;;;7.03;5.90;;;;;;;;;;1647162;86;21133;-65
2022/08/13 00:38:02;;;;;;;7.95;6.20;;;;;;;;;;1638939;86;21073;-65
2022/08/13 00:40:29;;;;;;;7.67;6.37;;;;;;;;;;1636425;86;21096;-65
2022/08/13 00:43:02;;;;;;;9.08;5.87;;;;;;;;;;1634686;88;21121;-64
2022/08/13 00:45:27;;;;;;;8.33;5.75;;;;;;;;;;1643124;86;21579;-64
2022/08/13 00:50:39;;;;;;;6.85;6.00;;;;;;;;;;1661592;86;21080;-65
2022/08/13 00:53:06;;;;;;;7.33;5.20;;;;;;;;;;1635130;86;21029;-65
2022/08/13 00:55:32;;;;;;;8.15;5.50;;;;;;;;;;1634927;88;21139;-64
2022/08/13 00:57:58;;;;;;;8.63;5.67;;;;;;;;;;1634974;88;21093;-64
2022/08/13 01:03:54;;;;;;;7.37;5.70;;;;;;;;;;1729184;78;73944;-69
2022/08/13 01:06:21;;;;;;;7.60;6.22;;;;;;;;;;1713221;83;21082;-65
2022/08/13 01:08:49;;;;;;;7.90;5.58;;;;;;;;;;1673981;84;21045;-65
2022/08/13 01:11:16;;;;;;;9.78;4.92;;;;;;;;;;1701646;83;21057;-65
2022/08/13 01:13:42;;;;;;;6.20;5.05;;;;;;;;;;1697843;83;21101;-65
2022/08/13 01:16:13;;;;;;;8.53;5.25;;;;;;;;;;1697855;84;21026;-65
2022/08/13 01:18:39;;;;;;;7.12;5.30;;;;;;;;;;1697439;84;21096;-65
2022/08/13 01:21:15;;;;;;;7.28;5.80;;;;;;;;;;1697873;84;21596;-65
2022/08/13 01:23:44;;;;;;;8.38;5.15;;;;;;;;;;1699343;83;21080;-66
2022/08/13 01:26:10;;;;;;;9.15;5.90;;;;;;;;;;1711759;83;21085;-66
2022/08/13 01:28:38;;;;;;;6.78;5.85;;;;;;;;;;1725005;83;21062;-65
2022/08/13 01:31:05;;;;;;;8.03;5.95;;;;;;;;;;1726906;83;21026;-65
2022/08/13 01:33:35;;;;;;;6.55;5.35;;;;;;;;;;1724558;83;21097;-65
2022/08/13 01:35:59;;;;;;;7.05;5.20;;;;;;;;;;1726515;83;21580;-65
2022/08/13 01:38:26;;;;;;;7.55;5.47;;;;;;;;;;1687196;84;21611;-65
2022/08/13 01:40:52;;;;;;;7.25;5.42;;;;;;;;;;1682770;85;21043;-65
2022/08/13 01:43:18;;;;;;;9.23;6.00;;;;;;;;;;1692814;83;21080;-65
2022/08/13 01:45:44;;;;;;;7.83;5.50;;;;;;;;;;1697233;84;21120;-65
2022/08/13 01:50:56;;;;;;;8.23;5.17;;;;;;;;;;1697729;84;21018;-65
2022/08/13 01:53:22;;;;;;;6.37;5.00;;;;;;;;;;1724818;83;21014;-65
2022/08/13 01:55:53;;;;;;;7.12;5.40;;;;;;;;;;1726603;83;21113;-65
2022/08/13 01:58:20;;;;;;;7.87;5.47;;;;;;;;;;1725908;83;21077;-65
2022/08/13 02:00:47;;;;;;;7.83;5.72;;;;;;;;;;1726338;83;21089;-65
2022/08/13 02:03:13;;;;;;;9.78;5.65;;;;;;;;;;1733718;82;21048;-65
2022/08/13 02:05:39;;;;;;;6.78;5.08;;;;;;;;;;1754632;81;21040;-65
2022/08/13 02:08:06;;;;;;;7.37;5.45;;;;;;;;;;1696513;83;21118;-65
2022/08/13 02:10:33;;;;;;;7.62;6.03;;;;;;;;;;1679801;85;21134;-65
2022/08/13 02:12:59;;;;;;;8.23;5.45;;;;;;;;;;1695948;84;21103;-64
2022/08/13 02:15:25;;;;;;;8.70;5.22;;;;;;;;;;1708284;83;21080;-64
2022/08/13 02:17:52;;;;;;;8.83;5.17;;;;;;;;;;1697887;84;22056;-64
2022/08/13 02:20:18;;;;;;;6.45;4.83;;;;;;;;;;1705998;84;21064;-64
2022/08/13 02:22:45;;;;;;;6.62;4.95;;;;;;;;;;1708441;84;21060;-65
2022/08/13 02:25:12;;;;;;;6.37;4.95;;;;;;;;;;1702286;83;21000;-65
2022/08/13 02:27:40;;;;;;;8.75;5.75;;;;;;;;;;1704628;83;21115;-65
2022/08/13 02:30:09;;;;;;;6.67;5.37;;;;;;;;;;1651006;87;21127;-65
2022/08/13 02:32:38;;;;;;;8.38;6.03;;;;;;;;;;1703997;84;21019;-64
2022/08/13 02:35:05;;;;;;;8.45;5.35;;;;;;;;;;1708460;84;21559;-65
2022/08/13 02:37:32;;;;;;;7.37;5.72;;;;;;;;;;1705789;83;21028;-65
2022/08/13 02:39:59;;;;;;;11.65;5.25;;;;;;;;;;1687249;84;21012;-66
2022/08/13 02:42:28;;;;;;;9.75;5.60;;;;;;;;;;1680153;85;21048;-66
2022/08/13 02:44:53;;;;;;;7.17;4.95;;;;;;;;;;1690050;84;21076;-66
2022/08/13 02:47:20;;;;;;;8.95;5.60;;;;;;;;;;1708178;84;21044;-66
2022/08/13 02:49:50;;;;;;;10.03;6.25;;;;;;;;;;1680669;83;21087;-66
2022/08/13 02:52:14;;;;;;;9.73;5.10;;;;;;;;;;1679918;85;21087;-66
2022/08/13 02:54:42;;;;;;;6.83;5.00;;;;;;;;;;1679883;85;21612;-66
2022/08/13 02:57:09;;;;;;;7.62;5.40;;;;;;;;;;1705263;84;21044;-66
2022/08/13 02:59:36;;;;;;;7.95;5.62;;;;;;;;;;1682611;83;21112;-66
2022/08/13 03:02:02;;;;;;;8.75;6.20;;;;;;;;;;1677118;85;21076;-66
2022/08/13 03:04:28;;;;;;;7.15;4.60;;;;;;;;;;1651676;86;21119;-67
2022/08/13 04:07:30;;;;;;;12.10;5.20;;;;;;;;;;1803321;78;23029;-66
2022/08/13 04:09:57;;;;;;;7.60;5.55;;;;;;;;;;1773538;80;21013;-66
2022/08/13 04:12:23;;;;;;;8.48;5.28;;;;;;;;;;1763961;80;21096;-66
2022/08/13 04:14:49;;;;;;;9.10;6.08;;;;;;;;;;1778405;80;21520;-66
2022/08/13 04:17:16;;;;;;;9.50;4.70;;;;;;;;;;1773256;80;21056;-61
2022/08/13 04:21:10;;;;;;;8.28;5.83;;;;;;;;;;1788433;79;22271;-62
2022/08/13 04:23:39;;;;;;;11.65;6.37;;;;;;;;;;1750780;82;21562;-63
2022/08/13 04:26:06;;;;;;;11.38;5.85;;;;;;;;;;1740969;80;21034;-63
2022/08/13 04:28:32;;;;;;;8.75;5.65;;;;;;;;;;1756622;80;21028;-63
2022/08/13 04:30:58;;;;;;;9.48;6.05;;;;;;;;;;1755374;82;21028;-63
2022/08/13 04:33:26;;;;;;;8.88;5.47;;;;;;;;;;1755683;82;21559;-63
2022/08/13 04:35:52;;;;;;;7.37;5.03;;;;;;;;;;1763348;80;21040;-67
2022/08/13 04:38:19;;;;;;;8.90;5.22;;;;;;;;;;1766203;80;21092;-67
2022/08/13 04:40:45;;;;;;;10.58;5.90;;;;;;;;;;1761191;81;21029;-67
2022/08/13 04:43:11;;;;;;;8.53;5.17;;;;;;;;;;1761393;81;21500;-66
2022/08/13 04:45:38;;;;;;;8.78;5.50;;;;;;;;;;1761224;81;21181;-68
2022/08/13 04:48:07;;;;;;;10.50;6.03;;;;;;;;;;1757066;80;21087;-67
2022/08/13 04:50:34;;;;;;;8.63;5.17;;;;;;;;;;1771591;80;21028;-65
2022/08/13 04:53:01;;;;;;;10.23;5.45;;;;;;;;;;1768050;80;21024;-65
2022/08/13 04:55:28;;;;;;;12.75;6.62;;;;;;;;;;1761096;81;21063;-65
2022/08/13 04:57:54;;;;;;;8.50;5.08;;;;;;;;;;1763233;80;21052;-65
2022/08/13 05:00:20;;;;;;;11.97;6.03;;;;;;;;;;1761597;81;21036;-65
2022/08/13 05:02:47;;;;;;;14.03;5.78;;;;;;;;;;1760004;81;21053;-66
2022/08/13 05:05:13;;;;;;;10.58;5.92;;;;;;;;;;1753350;82;21063;-64
2022/08/13 05:07:50;;;;;;;13.80;5.42;;;;;;;;;;1737053;82;21080;-64
2022/08/13 05:10:09;;;;;;;10.78;6.22;;;;;;;;;;1721996;83;21516;-64
2022/08/13 05:12:35;;;;;;;9.15;4.87;;;;;;;;;;1723219;83;21503;-65
2022/08/13 05:15:03;;;;;;;8.98;5.17;;;;;;;;;;1725306;82;21084;-65
2022/08/13 05:17:30;;;;;;;8.55;6.12;;;;;;;;;;1749528;82;21064;-65
2022/08/13 05:19:56;;;;;;;8.15;5.12;;;;;;;;;;1753130;81;21087;-65
2022/08/13 05:22:23;;;;;;;11.68;6.58;;;;;;;;;;1753941;82;21096;-65
2022/08/13 05:24:50;;;;;;;11.08;5.75;;;;;;;;;;1753579;82;21365;-65
2022/08/13 05:27:17;;;;;;;10.35;6.53;;;;;;;;;;1741570;82;21020;-65
2022/08/13 05:29:43;;;;;;;11.38;6.15;;;;;;;;;;1738494;82;21116;-65
2022/08/13 05:32:10;;;;;;;14.73;6.00;;;;;;;;;;1735829;82;21016;-66
2022/08/13 05:34:37;;;;;;;9.50;6.25;;;;;;;;;;1737541;82;21079;-65
2022/08/13 05:37:05;;;;;;;10.00;6.33;;;;;;;;;;1739517;82;21574;-65
2022/08/13 05:39:32;;;;;;;10.03;5.90;;;;;;;;;;1736794;82;21068;-65
2022/08/13 05:41:59;;;;;;;9.83;5.80;;;;;;;;;;1749922;80;21030;-64
2022/08/13 05:44:26;;;;;;;8.45;6.45;;;;;;;;;;1733135;82;21116;-66
2022/08/13 05:46:52;;;;;;;11.73;5.42;;;;;;;;;;1748142;82;21068;-66
2022/08/13 05:49:23;;;;;;;9.90;6.35;;;;;;;;;;1740088;82;21508;-65
2022/08/13 05:51:48;;;;;;;9.33;7.12;;;;;;;;;;1747073;82;21009;-66
2022/08/13 05:54:16;;;;;;;8.70;5.90;;;;;;;;;;1751455;81;21045;-65
2022/08/13 05:56:43;;;;;;;9.60;5.53;;;;;;;;;;1751504;81;21068;-65
2022/08/13 06:03:24;;;;;;;9.48;6.20;;;;;;;;;;1723230;83;21092;-65
2022/08/13 06:04:26;;;;;;;10.20;6.72;;;;;;;;;;1748620;82;21024;-65
2022/08/13 06:06:52;;;;;;;11.68;6.92;;;;;;;;;;1743325;82;21045;-65
2022/08/13 06:09:19;;;;;;;10.40;6.05;;;;;;;;;;1733460;82;21060;-64
2022/08/13 06:11:50;;;;;;;8.90;6.55;;;;;;;;;;1750136;82;21544;-65
2022/08/13 06:14:20;;;;;;;11.90;7.08;;;;;;;;;;1737998;82;21111;-65
2022/08/13 06:16:47;;;;;;;9.63;6.12;;;;;;;;;;1741412;82;21624;-64
2022/08/13 06:19:14;;;;;;;11.70;6.60;;;;;;;;;;1742758;82;21021;-64
2022/08/13 06:21:40;;;;;;;9.88;6.55;;;;;;;;;;1726399;82;21521;-63
2022/08/13 06:24:06;;;;;;;10.60;7.92;;;;;;;;;;1722159;82;21099;-64
2022/08/13 06:26:33;;;;;;;10.25;6.22;;;;;;;;;;1724073;82;21470;-64
2022/08/13 06:29:01;;;;;;;10.53;6.42;;;;;;;;;;1723395;82;21002;-64
2022/08/13 06:31:28;;;;;;;9.20;5.80;;;;;;;;;;1728322;82;21189;-64
2022/08/13 06:33:57;;;;;;;10.00;6.65;;;;;;;;;;1725656;82;21100;-64
2022/08/13 06:36:29;;;;;;;10.88;7.08;;;;;;;;;;1724118;81;20998;-64
2022/08/13 06:38:57;;;;;;;10.10;6.78;;;;;;;;;;1727426;82;21013;-63
2022/08/13 06:41:23;;;;;;;11.70;6.85;;;;;;;;;;1724377;82;21033;-63
2022/08/13 06:43:51;;;;;;;10.03;7.15;;;;;;;;;;1727319;82;21021;-62
2022/08/13 06:46:19;;;;;;;9.85;7.17;;;;;;;;;;1723143;82;21009;-62
2022/08/13 06:48:44;;;;;;;14.75;10.93;;;;;;;;;;1725517;82;21001;-63
2022/08/13 06:51:11;;;;;;;13.98;9.53;;;;;;;;;;1722274;81;21136;-63
2022/08/13 06:53:38;;;;;;;10.78;6.40;;;;;;;;;;1725803;82;21567;-63
2022/08/13 06:56:05;;;;;;;9.40;6.80;;;;;;;;;;1723841;82;21014;-64
2022/08/13 06:58:32;;;;;;;10.38;6.78;;;;;;;;;;1726672;82;21052;-65
2022/08/13 07:00:59;;;;;;;10.28;8.25;;;;;;;;;;1723627;81;21045;-66
2022/08/13 07:03:26;;;;;;;9.25;7.42;;;;;;;;;;1720388;82;21132;-66
2022/08/13 07:05:53;;;;;;;11.80;7.60;;;;;;;;;;1727891;82;21524;-66
2022/08/13 07:08:20;;;;;;;9.43;6.85;;;;;;;;;;1722997;82;21013;-67
2022/08/13 07:11:21;;;;;;;10.32;7.75;;;;;;;;;;1725070;82;21026;-66
2022/08/13 07:13:18;;;;;;;10.40;7.97;;;;;;;;;;1718523;82;21102;-66
2022/08/13 07:15:45;;;;;;;10.43;7.33;;;;;;;;;;1722229;82;21516;-66
2022/08/13 07:18:11;;;;;;;9.38;7.17;;;;;;;;;;1712046;82;21072;-66
2022/08/13 07:20:37;;;;;;;9.65;6.67;;;;;;;;;;1712546;82;21030;-66
2022/08/13 07:23:03;;;;;;;11.38;7.35;;;;;;;;;;1730732;82;21022;-66
2022/08/13 07:25:30;;;;;;;12.33;7.95;;;;;;;;;;1730528;82;21493;-66
2022/08/13 07:27:59;;;;;;;12.30;7.45;;;;;;;;;;1722095;82;21036;-65
2022/08/13 07:30:25;;;;;;;8.48;6.78;;;;;;;;;;1718867;82;21087;-66
2022/08/13 07:32:52;;;;;;;11.68;8.30;;;;;;;;;;1734574;82;21048;-66
2022/08/13 07:35:18;;;;;;;12.13;7.62;;;;;;;;;;1725885;82;21044;-67
2022/08/13 07:37:45;;;;;;;11.80;7.55;;;;;;;;;;1729538;82;21503;-67
2022/08/13 07:40:11;;;;;;;9.88;8.15;;;;;;;;;;1710722;82;21013;-67
2022/08/13 07:42:38;;;;;;;9.45;8.13;;;;;;;;;;1728256;82;21012;-67
2022/08/13 07:45:06;;;;;;;9.25;6.90;;;;;;;;;;1734351;82;21055;-67
2022/08/13 07:47:32;;;;;;;9.68;7.25;;;;;;;;;;1726199;82;20982;-67
2022/08/13 07:50:01;;;;;;;11.95;7.87;;;;;;;;;;1726021;82;21049;-67
2022/08/13 07:52:27;;;;;;;11.83;8.63;;;;;;;;;;1730470;82;21072;-67
2022/08/13 07:54:55;;;;;;;13.00;7.50;;;;;;;;;;1730621;82;21064;-66
2022/08/13 07:57:25;;;;;;;11.18;7.92;;;;;;;;;;1721192;82;21048;-66
2022/08/13 07:59:51;;;;;;;11.75;7.62;;;;;;;;;;1720175;82;21017;-66
2022/08/13 08:02:17;;;;;;;9.75;7.20;;;;;;;;;;1722390;82;21119;-66
2022/08/13 08:04:43;;;;;;;11.55;8.15;;;;;;;;;;1730959;82;21040;-66
2022/08/13 08:07:12;;;;;;;14.90;7.40;;;;;;;;;;1722672;82;21045;-66
2022/08/13 08:09:38;;;;;;;12.80;7.33;;;;;;;;;;1734504;82;21057;-66
2022/08/13 08:14:50;;;;;;;13.95;8.98;;;;;;;;;;1739101;82;21072;-66
2022/08/13 08:17:16;;;;;;;10.98;7.45;;;;;;;;;;1739107;82;21064;-66
2022/08/13 08:19:42;;;;;;;12.65;8.30;;;;;;;;;;1726406;82;21014;-65
2022/08/13 08:22:10;;;;;;;12.47;8.90;;;;;;;;;;1734170;80;21016;-65
2022/08/13 08:24:37;;;;;;;13.15;8.45;;;;;;;;;;1732670;80;21571;-65
2022/08/13 08:27:05;;;;;;;12.20;8.18;;;;;;;;;;1739170;82;20985;-65
2022/08/13 08:29:33;;;;;;;11.68;7.80;;;;;;;;;;1740393;82;21080;-65
2022/08/13 08:31:59;;;;;;;13.90;8.08;;;;;;;;;;1743319;80;21001;-67
2022/08/13 08:34:26;;;;;;;11.57;8.83;;;;;;;;;;1740989;80;21004;-68
2022/08/13 08:36:56;;;;;;;10.40;8.65;;;;;;;;;;1740888;82;21024;-67
2022/08/13 08:44:51;;;;;;;12.07;7.25;;;;;;;;;;1743713;82;21029;-67
2022/08/13 08:47:17;;;;;;;11.18;8.55;;;;;;;;;;1738141;82;21524;-63
2022/08/13 08:49:43;;;;;;;14.85;10.90;;;;;;;;;;1740917;82;21595;-66
2022/08/13 08:52:10;;;;;;;14.20;9.95;;;;;;;;;;1745789;81;21033;-66
2022/08/13 08:54:36;;;;;;;13.22;10.23;;;;;;;;;;1738126;82;22246;-64
2022/08/13 08:57:04;;;;;;;13.68;10.40;;;;;;;;;;1736216;82;21103;-65
2022/08/13 08:59:42;;;;;;;12.88;8.40;;;;;;;;;;1733216;82;21530;-65
2022/08/13 09:02:10;;;;;;;14.07;8.85;;;;;;;;;;1736259;82;21533;-66
2022/08/13 09:04:36;;;;;;;13.22;8.93;;;;;;;;;;1732879;82;21037;-65
2022/08/13 09:07:02;;;;;;;11.30;8.93;;;;;;;;;;1737326;82;21006;-64
2022/08/13 09:09:30;;;;;;;11.90;9.73;;;;;;;;;;1737457;81;21052;-64
2022/08/13 09:11:56;;;;;;;13.00;9.88;;;;;;;;;;1738749;82;21080;-66
2022/08/13 09:14:26;;;;;;;10.75;8.80;;;;;;;;;;1736016;82;20993;-67
2022/08/13 09:16:55;;;;;;;12.33;7.90;;;;;;;;;;1735257;82;21080;-65
2022/08/13 09:19:23;;;;;;;11.88;7.78;;;;;;;;;;1739729;82;21566;-65
2022/08/13 09:21:49;;;;;;;11.28;7.17;;;;;;;;;;1724579;81;21080;-65
2022/08/13 09:24:15;;;;;;;13.20;8.70;;;;;;;;;;1721182;82;20986;-65
2022/08/13 09:26:48;;;;;;;10.98;9.00;;;;;;;;;;1721864;82;21001;-65
2022/08/13 09:29:15;;;;;;;12.70;9.10;;;;;;;;;;1720658;82;21020;-65
2022/08/13 09:31:44;;;;;;;16.70;7.92;;;;;;;;;;1719583;82;21057;-65
2022/08/13 09:34:10;;;;;;;13.98;10.03;;;;;;;;;;1722046;82;21078;-66
2022/08/13 09:36:37;;;;;;;12.45;10.05;;;;;;;;;;1721445;82;21053;-65
2022/08/13 09:39:03;;;;;;;16.00;13.03;;;;;;;;;;1715908;82;21044;-65
2022/08/13 09:41:31;;;;;;;15.28;10.45;;;;;;;;;;1721957;82;21030;-66
2022/08/13 09:43:58;;;;;;;14.60;9.45;;;;;;;;;;1712819;82;21048;-66
2022/08/13 09:46:24;;;;;;;10.78;8.50;;;;;;;;;;1730440;82;21105;-65
2022/08/13 09:48:51;;;;;;;12.73;9.95;;;;;;;;;;1731328;82;21053;-65
2022/08/13 09:51:18;;;;;;;10.30;9.20;;;;;;;;;;1727617;81;21100;-68
2022/08/13 09:53:47;;;;;;;14.68;8.88;;;;;;;;;;1727153;81;21105;-68
2022/08/13 09:56:17;;;;;;;12.33;9.08;;;;;;;;;;1722831;82;21060;-68
2022/08/13 09:58:42;;;;;;;12.45;9.73;;;;;;;;;;1722482;82;21058;-69
2022/08/13 10:01:09;;;;;;;13.05;10.60;;;;;;;;;;1719919;82;21417;-68
2022/08/13 10:03:38;;;;;;;13.13;8.95;;;;;;;;;;1720202;82;21048;-66
2022/08/13 10:06:03;;;;;;;14.03;9.43;;;;;;;;;;1721665;82;21050;-66
2022/08/13 10:08:30;;;;;;;13.55;11.30;;;;;;;;;;1721072;82;21025;-69
2022/08/13 10:10:59;;;;;;;12.95;9.80;;;;;;;;;;1717046;82;21088;-67
2022/08/13 10:13:26;;;;;;;11.38;9.83;;;;;;;;;;1723235;81;21039;-67
2022/08/13 10:15:52;;;;;;;12.33;10.65;;;;;;;;;;1722227;82;20997;-69
2022/08/13 10:18:18;;;;;;;12.23;9.40;;;;;;;;;;1732704;82;20973;-68
2022/08/13 10:20:45;;;;;;;15.20;10.88;;;;;;;;;;1732995;81;21029;-68
2022/08/13 10:23:12;;;;;;;13.22;11.35;;;;;;;;;;1736539;82;21267;-69
2022/08/13 10:25:38;;;;;;;14.38;10.55;;;;;;;;;;1737997;81;21101;-69
2022/08/13 10:28:17;;;;;;;11.05;9.25;;;;;;;;;;1738594;82;21074;-68
2022/08/13 10:30:43;;;;;;;13.78;9.70;;;;;;;;;;1733779;82;21013;-68
2022/08/13 10:33:09;;;;;;;11.68;9.93;;;;;;;;;;1728137;82;21024;-68
2022/08/13 10:35:35;;;;;;;15.95;9.88;;;;;;;;;;1732514;82;21087;-68
2022/08/13 10:38:02;;;;;;;13.05;10.50;;;;;;;;;;1733446;82;21527;-69
2022/08/13 10:40:29;;;;;;;12.33;10.40;;;;;;;;;;1736484;82;21005;-68
2022/08/13 10:42:55;;;;;;;13.58;9.68;;;;;;;;;;1737411;82;21616;-68
2022/08/13 10:45:23;;;;;;;11.45;8.63;;;;;;;;;;1730627;82;21079;-67
2022/08/13 10:47:49;;;;;;;13.38;8.73;;;;;;;;;;1735571;82;21000;-66
2022/08/13 10:50:16;;;;;;;13.20;10.70;;;;;;;;;;1734839;82;21061;-66
2022/08/13 10:52:42;;;;;;;14.18;11.35;;;;;;;;;;1733250;82;21652;-65
2022/08/13 10:55:11;;;;;;;13.15;9.95;;;;;;;;;;1732158;82;21094;-65
2022/08/13 10:57:37;;;;;;;13.85;8.78;;;;;;;;;;1731565;82;21176;-67
2022/08/13 11:00:04;;;;;;;12.15;7.70;;;;;;;;;;1737115;82;21345;-66
2022/08/13 11:02:30;;;;;;;10.38;7.97;;;;;;;;;;1735405;82;21450;-67
2022/08/13 11:04:57;;;;;;;13.70;9.40;;;;;;;;;;1731790;82;21411;-66
2022/08/13 11:07:25;;;;;;;15.40;9.73;;;;;;;;;;1737007;82;21002;-66
2022/08/13 11:09:51;;;;;;;11.28;8.63;;;;;;;;;;1734955;82;21040;-67
2022/08/13 11:12:17;;;;;;;12.55;9.08;;;;;;;;;;1735325;82;21676;-67
2022/08/13 11:14:46;;;;;;;11.03;8.28;;;;;;;;;;1737418;82;22100;-67
2022/08/13 11:17:15;;;;;;;9.98;8.10;;;;;;;;;;1734319;81;21102;-66
2022/08/13 11:19:44;;;;;;;11.05;8.98;;;;;;;;;;1734532;80;21024;-67
2022/08/13 11:22:07;;;;;;;13.30;9.10;;;;;;;;;;1727834;82;21045;-67
2022/08/13 11:24:33;;;;;;;9.40;7.87;;;;;;;;;;1722695;82;21005;-68
2022/08/13 11:26:59;;;;;;;12.68;8.93;;;;;;;;;;1721836;82;21505;-67
2022/08/13 11:29:25;;;;;;;10.38;9.20;;;;;;;;;;1716758;82;21535;-66
2022/08/13 11:31:51;;;;;;;11.15;8.28;;;;;;;;;;1717313;82;21528;-66
2022/08/13 11:34:18;;;;;;;12.30;8.15;;;;;;;;;;1721475;82;21616;-67
2022/08/13 11:36:43;;;;;;;13.50;9.63;;;;;;;;;;1722264;81;21048;-67
2022/08/13 11:39:11;;;;;;;13.95;9.23;;;;;;;;;;1718387;82;21021;-67
2022/08/13 11:41:37;;;;;;;10.60;8.70;;;;;;;;;;1715879;82;21032;-66
2022/08/13 11:44:03;;;;;;;10.32;8.33;;;;;;;;;;1721985;82;21473;-66
2022/08/13 11:46:29;;;;;;;13.55;9.68;;;;;;;;;;1719127;82;21462;-66
2022/08/13 11:48:55;;;;;;;11.45;7.67;;;;;;;;;;1719664;82;21029;-67
2022/08/13 11:51:21;;;;;;;11.63;8.90;;;;;;;;;;1717317;82;21049;-66
2022/08/13 11:53:47;;;;;;;12.55;8.73;;;;;;;;;;1721888;82;22194;-66
2022/08/13 11:56:13;;;;;;;9.88;8.43;;;;;;;;;;1716787;82;21559;-66
2022/08/13 11:58:39;;;;;;;13.48;8.70;;;;;;;;;;1718467;82;21033;-67
2022/08/13 12:01:08;;;;;;;11.05;8.98;;;;;;;;;;1721559;82;21072;-67
2022/08/13 12:03:35;;;;;;;12.53;9.13;;;;;;;;;;1720594;82;22211;-67
2022/08/13 12:06:01;;;;;;;11.08;9.38;;;;;;;;;;1722019;82;20982;-67
2022/08/13 12:08:27;;;;;;;9.83;7.90;;;;;;;;;;1723973;82;22060;-67
2022/08/13 12:10:53;;;;;;;11.10;8.53;;;;;;;;;;1721159;82;21041;-67
2022/08/13 12:13:19;;;;;;;10.50;9.35;;;;;;;;;;1719960;82;21307;-67
2022/08/13 12:15:45;;;;;;;12.43;9.35;;;;;;;;;;1717779;82;20981;-67
2022/08/13 12:18:12;;;;;;;11.78;8.88;;;;;;;;;;1720886;81;21017;-67
2022/08/13 12:20:38;;;;;;;13.10;9.08;;;;;;;;;;1722732;82;21007;-68
2022/08/13 12:23:04;;;;;;;10.55;8.70;;;;;;;;;;1723017;81;21114;-67
2022/08/13 12:25:31;;;;;;;11.25;8.53;;;;;;;;;;1726049;82;21052;-67
2022/08/13 12:28:17;;;;;;;9.73;8.40;;;;;;;;;;1731324;82;21032;-66
2022/08/13 12:30:44;;;;;;;11.10;9.03;;;;;;;;;;1727727;82;21087;-66
2022/08/13 12:33:10;;;;;;;13.85;8.55;;;;;;;;;;1729162;82;21002;-66
2022/08/13 12:35:36;;;;;;;10.55;8.88;;;;;;;;;;1732695;82;21655;-66
2022/08/13 12:38:06;;;;;;;12.60;8.15;;;;;;;;;;1673490;85;21064;-68
2022/08/13 12:40:32;;;;;;;12.50;8.33;;;;;;;;;;1687795;84;21034;-68
2022/08/13 12:42:58;;;;;;;11.10;8.98;;;;;;;;;;1679870;84;21579;-66
2022/08/13 12:45:24;;;;;;;10.05;8.58;;;;;;;;;;1731362;81;21460;-66
2022/08/13 12:47:50;;;;;;;11.22;9.13;;;;;;;;;;1726843;82;21060;-66
2022/08/13 12:50:17;;;;;;;12.85;8.60;;;;;;;;;;1728807;82;21579;-66
2022/08/13 12:52:43;;;;;;;9.63;7.78;;;;;;;;;;1733910;80;21182;-67
2022/08/13 12:55:09;;;;;;;10.50;8.43;;;;;;;;;;1731671;82;21092;-67
2022/08/13 12:57:36;;;;;;;15.65;8.85;;;;;;;;;;1728594;82;21053;-66
2022/08/13 13:00:03;;;;;;;13.40;9.23;;;;;;;;;;1731370;82;21088;-67
2022/08/13 13:02:33;;;;;;;11.70;9.20;;;;;;;;;;1730037;82;21061;-67
2022/08/13 13:04:59;;;;;;;13.68;9.10;;;;;;;;;;1730504;82;21076;-66
2022/08/13 13:07:25;;;;;;;13.55;9.10;;;;;;;;;;1730301;82;21587;-66
2022/08/13 13:09:53;;;;;;;10.13;8.15;;;;;;;;;;1701842;82;20986;-67
2022/08/13 13:15:01;;;;;;;10.75;8.13;;;;;;;;;;1681882;80;74328;-69
2022/08/13 13:17:29;;;;;;;10.80;8.35;;;;;;;;;;1661462;85;21060;-72
2022/08/13 13:19:55;;;;;;;12.65;9.23;;;;;;;;;;1717466;82;21535;-71
2022/08/13 13:22:21;;;;;;;11.35;9.03;;;;;;;;;;1720222;82;21109;-71
2022/08/13 13:24:47;;;;;;;11.97;9.23;;;;;;;;;;1719509;82;21057;-71
2022/08/13 13:27:13;;;;;;;12.33;8.00;;;;;;;;;;1718948;82;21029;-71
2022/08/13 13:29:41;;;;;;;13.13;8.98;;;;;;;;;;1723466;82;21038;-71
2022/08/13 13:32:13;;;;;;;11.75;9.25;;;;;;;;;;1720092;82;21021;-72
2022/08/13 13:34:43;;;;;;;14.90;9.65;;;;;;;;;;1720969;82;21049;-70
2022/08/13 13:37:11;;;;;;;12.80;9.73;;;;;;;;;;1718422;82;21097;-69
2022/08/13 13:39:37;;;;;;;13.80;9.88;;;;;;;;;;1723529;82;21113;-69
2022/08/13 13:42:03;;;;;;;11.53;8.75;;;;;;;;;;1721237;82;21443;-69
2022/08/13 13:44:31;;;;;;;13.80;10.43;;;;;;;;;;1720322;82;21117;-71
2022/08/13 13:46:57;;;;;;;14.43;8.95;;;;;;;;;;1718097;82;20994;-69
2022/08/13 13:49:23;;;;;;;10.53;7.97;;;;;;;;;;1715194;82;21088;-69
2022/08/13 13:51:51;;;;;;;9.30;7.72;;;;;;;;;;1720079;82;21093;-70
2022/08/13 13:54:19;;;;;;;11.53;9.43;;;;;;;;;;1720304;82;21025;-69
2022/08/13 13:56:45;;;;;;;14.25;10.60;;;;;;;;;;1718878;82;21048;-68
2022/08/13 13:59:12;;;;;;;13.70;10.10;;;;;;;;;;1721954;82;21037;-70
2022/08/13 14:01:38;;;;;;;14.73;9.90;;;;;;;;;;1718270;82;21018;-69
2022/08/13 14:04:04;;;;;;;10.93;8.70;;;;;;;;;;1719372;82;21117;-68
2022/08/13 14:06:31;;;;;;;12.25;9.48;;;;;;;;;;1720124;82;21113;-68
2022/08/13 14:08:57;;;;;;;12.18;9.90;;;;;;;;;;1718243;82;21120;-66
2022/08/13 14:11:23;;;;;;;14.25;9.70;;;;;;;;;;1717979;82;21109;-67
2022/08/13 14:13:50;;;;;;;9.45;8.20;;;;;;;;;;1717068;82;21113;-67
2022/08/13 14:16:16;;;;;;;11.93;8.15;;;;;;;;;;1701729;82;22369;-67
2022/08/13 14:18:43;;;;;;;12.60;9.18;;;;;;;;;;1697274;82;21185;-67
2022/08/13 14:21:09;;;;;;;12.28;9.43;;;;;;;;;;1703358;82;21033;-67
2022/08/13 14:23:37;;;;;;;10.20;8.63;;;;;;;;;;1700155;82;21098;-67
2022/08/13 14:26:04;;;;;;;10.40;9.30;;;;;;;;;;1701437;82;21084;-69
2022/08/13 14:28:31;;;;;;;10.72;8.53;;;;;;;;;;1703455;82;21051;-68
2022/08/13 14:30:58;;;;;;;13.43;8.93;;;;;;;;;;1640963;85;21074;-67
2022/08/13 14:33:25;;;;;;;13.75;10.45;;;;;;;;;;1645764;85;21069;-67
2022/08/13 14:35:52;;;;;;;10.70;8.88;;;;;;;;;;1671981;84;21584;-67
2022/08/13 14:38:18;;;;;;;11.75;9.63;;;;;;;;;;1666809;84;21077;-68
2022/08/13 14:40:44;;;;;;;11.55;9.83;;;;;;;;;;1670176;84;21130;-68
2022/08/13 14:43:10;;;;;;;11.43;9.60;;;;;;;;;;1633651;85;22609;-68
2022/08/13 14:45:41;;;;;;;9.60;8.18;;;;;;;;;;1671473;84;21085;-68
2022/08/13 14:48:14;;;;;;;16.48;8.75;;;;;;;;;;1680371;84;21040;-68
2022/08/13 14:50:41;;;;;;;9.68;8.35;;;;;;;;;;1680659;84;21009;-68
2022/08/13 14:53:07;;;;;;;10.80;9.10;;;;;;;;;;1671967;84;21591;-67
2022/08/13 14:55:34;;;;;;;12.23;8.23;;;;;;;;;;1674006;84;21127;-68
2022/08/13 14:58:00;;;;;;;11.30;9.60;;;;;;;;;;1672933;84;21041;-67
2022/08/13 15:00:27;;;;;;;11.18;8.88;;;;;;;;;;1670566;84;21040;-67
2022/08/13 15:02:56;;;;;;;12.43;9.35;;;;;;;;;;1675798;84;21072;-68
2022/08/13 15:05:22;;;;;;;10.28;8.05;;;;;;;;;;1674373;84;21057;-68
2022/08/13 15:07:49;;;;;;;9.95;8.70;;;;;;;;;;1712571;82;21040;-68
2022/08/13 15:10:17;;;;;;;9.95;8.83;;;;;;;;;;1699851;82;21083;-69
2022/08/13 15:12:43;;;;;;;13.15;9.10;;;;;;;;;;1705791;82;21724;-68
2022/08/13 15:15:10;;;;;;;10.80;8.28;;;;;;;;;;1711206;82;21096;-69
2022/08/13 15:17:37;;;;;;;10.85;8.95;;;;;;;;;;1719537;82;21066;-70
2022/08/13 15:20:06;;;;;;;10.70;8.55;;;;;;;;;;1714317;82;21058;-69
2022/08/13 15:22:33;;;;;;;13.65;7.92;;;;;;;;;;1714177;82;21112;-69
2022/08/13 15:24:59;;;;;;;11.35;8.63;;;;;;;;;;1711688;82;21108;-70
2022/08/13 15:27:30;;;;;;;11.97;9.38;;;;;;;;;;1715456;82;21543;-70
2022/08/13 15:29:57;;;;;;;11.78;8.03;;;;;;;;;;1708120;82;21032;-70
2022/08/13 15:32:23;;;;;;;10.98;8.95;;;;;;;;;;1714001;82;21062;-69
2022/08/13 15:34:54;;;;;;;10.20;8.48;;;;;;;;;;1717650;82;21081;-69
2022/08/13 15:37:20;;;;;;;13.93;10.55;;;;;;;;;;1718700;82;21514;-70
2022/08/13 15:39:47;;;;;;;17.42;15.63;;;;;;;;;;1719062;82;21066;-69
2022/08/13 15:42:13;;;;;;;15.85;12.60;;;;;;;;;;1720927;82;21079;-69
2022/08/13 15:44:40;;;;;;;13.83;9.93;;;;;;;;;;1720719;82;21085;-69
2022/08/13 15:47:12;;;;;;;15.08;13.00;;;;;;;;;;1712039;82;21017;-69
2022/08/13 15:49:36;;;;;;;18.42;14.58;;;;;;;;;;1717943;82;21097;-69
2022/08/13 15:52:03;;;;;;;15.53;13.93;;;;;;;;;;1715999;82;21077;-69
2022/08/13 15:54:29;;;;;;;18.62;14.93;;;;;;;;;;1688722;82;21111;-69
2022/08/13 15:57:00;;;;;;;17.50;15.70;;;;;;;;;;1715923;82;21082;-69